Time,TemperatureF,DewpointF,PressureIn,WindDirection,WindDirectionDegrees,WindSpeedMPH,WindSpeedGustMPH,Humidity,HourlyPrecipIn,Conditions,Clouds,dailyrainin,SoftwareType,DateUTC
2013-01-04 00:04:00,-8.1,-11.6,31.07,NW,313,0.0,0.0,84,0.00,,---,0.00,VWS V14.01,2013-01-04 07:04:00,
2013-01-04 00:10:00,-8.1,-11.4,31.07,NW,313,0.0,0.0,85,0.00,,---,0.00,VWS V14.01,2013-01-04 07:10:00,
2013-01-04 00:15:00,-8.0,-11.3,31.07,NW,313,0.0,1.0,85,0.00,,---,0.00,VWS V14.01,2013-01-04 07:15:00,
2013-01-04 00:20:00,-8.3,-11.8,31.07,NW,313,0.0,0.0,84,0.00,,---,0.00,VWS V14.01,2013-01-04 07:20:00,
2013-01-04 00:24:00,-8.5,-12.3,31.07,NW,313,0.0,0.0,83,0.00,,---,0.00,VWS V14.01,2013-01-04 07:24:00,
2013-01-04 00:30:00,-8.4,-11.9,31.07,NW,313,0.0,0.0,84,0.00,,---,0.00,VWS V14.01,2013-01-04 07:30:00,
2013-01-04 00:35:00,-8.2,-11.5,31.07,NW,313,0.0,1.0,85,0.00,,---,0.00,VWS V14.01,2013-01-04 07:35:00,
2013-01-04 00:40:00,-8.2,-11.7,31.07,NW,313,0.0,0.0,84,0.00,,---,0.00,VWS V14.01,2013-01-04 07:40:00,
2013-01-04 00:45:00,-8.0,-11.3,31.07,NW,313,0.0,0.0,85,0.00,,---,0.00,VWS V14.01,2013-01-04 07:45:00,
2013-01-04 00:50:00,-8.0,-11.3,31.07,NW,313,0.0,0.0,85,0.00,,---,0.00,VWS V14.01,2013-01-04 07:50:00,
2013-01-04 00:55:00,-8.6,-12.4,31.07,NW,313,1.0,2.0,83,0.00,,---,0.00,VWS V14.01,2013-01-04 07:55:00,
2013-01-04 01:00:00,-9.1,-12.9,31.07,NW,313,2.0,2.0,83,0.00,,---,0.00,VWS V14.01,2013-01-04 08:00:00,
2013-01-04 01:05:00,-8.8,-12.3,31.07,NW,313,1.0,1.0,84,0.00,,---,0.00,VWS V14.01,2013-01-04 08:05:00,
2013-01-04 01:10:00,-8.8,-12.1,31.07,NW,313,0.0,0.0,85,0.00,,---,0.00,VWS V14.01,2013-01-04 08:10:00,
2013-01-04 01:15:00,-8.8,-12.3,31.07,NW,313,2.0,2.0,84,0.00,,---,0.00,VWS V14.01,2013-01-04 08:15:00,
2013-01-04 01:20:00,-8.2,-11.3,31.07,NW,313,1.0,2.0,86,0.00,,---,0.00,VWS V14.01,2013-01-04 08:20:00,
2013-01-04 01:25:00,-7.6,-10.7,31.06,NW,313,0.0,0.0,86,0.00,,---,0.00,VWS V14.01,2013-01-04 08:25:00,
2013-01-04 01:30:00,-7.3,-10.4,31.06,NW,313,2.0,4.0,86,0.00,,---,0.00,VWS V14.01,2013-01-04 08:30:00,
2013-01-04 01:35:00,-7.1,-10.4,31.06,NW,313,0.0,1.0,85,0.00,,---,0.00,VWS V14.01,2013-01-04 08:35:00,
2013-01-04 01:40:00,-7.3,-10.8,31.06,NW,313,0.0,0.0,84,0.00,,---,0.00,VWS V14.01,2013-01-04 08:40:00,
2013-01-04 01:45:00,-7.6,-11.4,31.06,NW,313,0.0,0.0,83,0.00,,---,0.00,VWS V14.01,2013-01-04 08:45:00,
2013-01-04 01:50:00,-8.0,-11.8,31.05,NW,313,0.0,0.0,83,0.00,,---,0.00,VWS V14.01,2013-01-04 08:50:00,
2013-01-04 01:55:00,-8.0,-11.8,31.06,NW,313,0.0,1.0,83,0.00,,---,0.00,VWS V14.01,2013-01-04 08:55:00,
2013-01-04 02:00:00,-8.1,-11.9,31.06,NW,313,0.0,0.0,83,0.00,,---,0.00,VWS V14.01,2013-01-04 09:00:00,
2013-01-04 02:05:00,-8.2,-12.0,31.06,NW,313,0.0,0.0,83,0.00,,---,0.00,VWS V14.01,2013-01-04 09:05:00,
2013-01-04 02:10:00,-8.5,-12.5,31.06,NW,313,0.0,0.0,82,0.00,,---,0.00,VWS V14.01,2013-01-04 09:10:00,
2013-01-04 02:15:00,-8.9,-13.1,31.06,NW,313,0.0,0.0,81,0.00,,---,0.00,VWS V14.01,2013-01-04 09:15:00,
2013-01-04 02:20:00,-9.2,-13.4,31.06,NW,313,0.0,0.0,81,0.00,,---,0.00,VWS V14.01,2013-01-04 09:20:00,
2013-01-04 02:25:00,-9.4,-13.4,31.06,NW,313,0.0,0.0,82,0.00,,---,0.00,VWS V14.01,2013-01-04 09:25:00,
2013-01-04 02:30:00,-9.4,-13.1,31.06,NW,313,1.0,1.0,83,0.00,,---,0.00,VWS V14.01,2013-01-04 09:30:00,
2013-01-04 02:35:00,-9.0,-12.5,31.06,NW,313,1.0,2.0,84,0.00,,---,0.00,VWS V14.01,2013-01-04 09:35:00,
2013-01-04 02:40:00,-8.2,-11.5,31.06,NW,313,3.0,3.0,85,0.00,,---,0.00,VWS V14.01,2013-01-04 09:40:00,
2013-01-04 02:45:00,-8.4,-11.9,31.06,NW,313,0.0,2.0,84,0.00,,---,0.00,VWS V14.01,2013-01-04 09:45:00,
2013-01-04 02:50:00,-9.0,-12.8,31.06,NW,313,0.0,1.0,83,0.00,,---,0.00,VWS V14.01,2013-01-04 09:50:00,
2013-01-04 02:55:00,-9.3,-13.1,31.06,NW,313,0.0,0.0,83,0.00,,---,0.00,VWS V14.01,2013-01-04 09:55:00,
2013-01-04 03:00:00,-9.1,-12.6,31.06,NW,313,0.0,0.0,84,0.00,,---,0.00,VWS V14.01,2013-01-04 10:00:00,
2013-01-04 03:05:00,-9.0,-12.5,31.05,NW,313,0.0,0.0,84,0.00,,---,0.00,VWS V14.01,2013-01-04 10:05:00,
2013-01-04 03:10:00,-8.9,-12.2,31.05,NW,313,0.0,0.0,85,0.00,,---,0.00,VWS V14.01,2013-01-04 10:10:00,
2013-01-04 03:15:00,-8.9,-12.2,31.05,NW,313,0.0,0.0,85,0.00,,---,0.00,VWS V14.01,2013-01-04 10:15:00,
2013-01-04 03:20:00,-8.8,-12.1,31.05,NW,313,0.0,0.0,85,0.00,,---,0.00,VWS V14.01,2013-01-04 10:20:00,
2013-01-04 03:25:00,-8.8,-12.1,31.05,NW,313,0.0,0.0,85,0.00,,---,0.00,VWS V14.01,2013-01-04 10:25:00,
2013-01-04 03:30:00,-8.9,-12.4,31.05,NW,313,0.0,0.0,84,0.00,,---,0.00,VWS V14.01,2013-01-04 10:30:00,
2013-01-04 03:35:00,-9.0,-12.5,31.05,NW,313,0.0,0.0,84,0.00,,---,0.00,VWS V14.01,2013-01-04 10:35:00,
2013-01-04 03:40:00,-9.1,-12.9,31.05,NW,313,0.0,0.0,83,0.00,,---,0.00,VWS V14.01,2013-01-04 10:40:00,
2013-01-04 03:45:00,-9.3,-13.1,31.05,NW,313,0.0,0.0,83,0.00,,---,0.00,VWS V14.01,2013-01-04 10:45:00,
2013-01-04 03:50:00,-9.4,-13.1,31.05,NW,313,0.0,0.0,83,0.00,,---,0.00,VWS V14.01,2013-01-04 10:50:00,
2013-01-04 03:55:00,-9.7,-13.7,31.05,NW,313,0.0,0.0,82,0.00,,---,0.00,VWS V14.01,2013-01-04 10:55:00,
2013-01-04 04:00:00,-10.0,-14.0,31.05,NW,313,0.0,0.0,82,0.00,,---,0.00,VWS V14.01,2013-01-04 11:00:00,
2013-01-04 04:05:00,-10.3,-14.3,31.05,NW,313,0.0,0.0,82,0.00,,---,0.00,VWS V14.01,2013-01-04 11:05:00,
2013-01-04 04:11:00,-10.5,-14.5,31.05,NW,313,0.0,0.0,82,0.00,,---,0.00,VWS V14.01,2013-01-04 11:11:00,
2013-01-04 04:16:00,-10.7,-14.4,31.05,NW,313,0.0,0.0,83,0.00,,---,0.00,VWS V14.01,2013-01-04 11:16:00,
2013-01-04 04:21:00,-10.7,-14.4,31.05,NW,313,0.0,0.0,83,0.00,,---,0.00,VWS V14.01,2013-01-04 11:21:00,
2013-01-04 04:26:00,-10.5,-14.0,31.05,NW,313,0.0,0.0,84,0.00,,---,0.00,VWS V14.01,2013-01-04 11:26:00,
2013-01-04 04:31:00,-10.4,-13.9,31.05,NW,313,0.0,0.0,84,0.00,,---,0.00,VWS V14.01,2013-01-04 11:31:00,
2013-01-04 04:36:00,-10.2,-13.7,31.05,NW,313,1.0,2.0,84,0.00,,---,0.00,VWS V14.01,2013-01-04 11:36:00,
2013-01-04 04:41:00,-10.0,-13.3,31.05,NW,313,2.0,2.0,85,0.00,,---,0.00,VWS V14.01,2013-01-04 11:41:00,
2013-01-04 04:46:00,-9.5,-12.8,31.05,NW,313,0.0,0.0,85,0.00,,---,0.00,VWS V14.01,2013-01-04 11:46:00,
2013-01-04 04:51:00,-9.4,-12.7,31.05,NW,313,0.0,0.0,85,0.00,,---,0.00,VWS V14.01,2013-01-04 11:51:00,
2013-01-04 04:56:00,-9.4,-12.7,31.05,NW,313,0.0,0.0,85,0.00,,---,0.00,VWS V14.01,2013-01-04 11:56:00,
2013-01-04 05:01:00,-9.4,-9.8,31.05,NW,313,0.0,0.0,98,0.00,,---,0.00,VWS V14.01,2013-01-04 12:01:00,
2013-01-04 05:06:00,-9.4,-12.7,31.05,NW,313,0.0,0.0,85,0.00,,---,0.00,VWS V14.01,2013-01-04 12:06:00,
2013-01-04 05:11:00,-9.4,-12.9,31.05,NW,313,1.0,3.0,84,0.00,,---,0.00,VWS V14.01,2013-01-04 12:11:00,
2013-01-04 05:16:00,-9.0,-12.3,31.04,NW,313,1.0,1.0,85,0.00,,---,0.00,VWS V14.01,2013-01-04 12:16:00,
2013-01-04 05:21:00,-8.8,-12.1,31.04,NW,313,0.0,0.0,85,0.00,,---,0.00,VWS V14.01,2013-01-04 12:21:00,
2013-01-04 05:26:00,-8.7,-12.0,31.04,NW,313,0.0,0.0,85,0.00,,---,0.00,VWS V14.01,2013-01-04 12:26:00,
2013-01-04 05:31:00,-9.3,-12.8,31.04,NW,313,0.0,0.0,84,0.00,,---,0.00,VWS V14.01,2013-01-04 12:31:00,
2013-01-04 05:36:00,-9.6,-13.3,31.04,NW,313,0.0,0.0,83,0.00,,---,0.00,VWS V14.01,2013-01-04 12:36:00,
2013-01-04 05:41:00,-9.9,-13.6,31.04,NW,313,0.0,0.0,83,0.00,,---,0.00,VWS V14.01,2013-01-04 12:41:00,
2013-01-04 05:46:00,-10.1,-14.1,31.03,NW,313,0.0,0.0,82,0.00,,---,0.00,VWS V14.01,2013-01-04 12:46:00,
2013-01-04 05:51:00,-10.3,-14.3,31.03,NW,313,0.0,0.0,82,0.00,,---,0.00,VWS V14.01,2013-01-04 12:51:00,
2013-01-04 05:56:00,-10.5,-14.5,31.03,NW,313,0.0,0.0,82,0.00,,---,0.00,VWS V14.01,2013-01-04 12:56:00,
2013-01-04 06:01:00,-10.4,-14.1,31.03,NW,313,0.0,0.0,83,0.00,,---,0.00,VWS V14.01,2013-01-04 13:01:00,
2013-01-04 06:06:00,-9.8,-13.1,31.03,NW,313,3.0,3.0,85,0.00,,---,0.00,VWS V14.01,2013-01-04 13:06:00,
2013-01-04 06:11:00,-9.3,-12.3,31.03,NW,313,3.0,3.0,86,0.00,,---,0.00,VWS V14.01,2013-01-04 13:11:00,
2013-01-04 06:16:00,-9.9,-13.4,31.03,NW,313,1.0,1.0,84,0.00,,---,0.00,VWS V14.01,2013-01-04 13:16:00,
2013-01-04 06:21:00,-9.9,-13.4,31.03,NW,313,0.0,0.0,84,0.00,,---,0.00,VWS V14.01,2013-01-04 13:21:00,
2013-01-04 06:26:00,-9.6,-13.1,31.03,NW,313,3.0,4.0,84,0.00,,---,0.00,VWS V14.01,2013-01-04 13:26:00,
2013-01-04 06:31:00,-9.3,-12.8,31.03,NW,313,0.0,0.0,84,0.00,,---,0.00,VWS V14.01,2013-01-04 13:31:00,
2013-01-04 06:36:00,-9.8,-13.5,31.03,NW,313,0.0,0.0,83,0.00,,---,0.00,VWS V14.01,2013-01-04 13:36:00,
2013-01-04 06:41:00,-10.5,-14.5,31.03,NW,313,0.0,0.0,82,0.00,,---,0.00,VWS V14.01,2013-01-04 13:41:00,
2013-01-04 06:46:00,-10.9,-14.9,31.03,NW,313,0.0,0.0,82,0.00,,---,0.00,VWS V14.01,2013-01-04 13:46:00,
2013-01-04 06:51:00,-11.1,-15.1,31.03,NW,313,0.0,0.0,82,0.00,,---,0.00,VWS V14.01,2013-01-04 13:51:00,
2013-01-04 06:56:00,-11.1,-14.8,31.03,NW,313,0.0,0.0,83,0.00,,---,0.00,VWS V14.01,2013-01-04 13:56:00,
2013-01-04 07:01:00,-11.1,-14.8,31.03,NW,313,0.0,0.0,83,0.00,,---,0.00,VWS V14.01,2013-01-04 14:01:00,
2013-01-04 07:06:00,-11.0,-14.5,31.03,NW,313,0.0,0.0,84,0.00,,---,0.00,VWS V14.01,2013-01-04 14:06:00,
2013-01-04 07:11:00,-10.9,-14.4,31.03,NW,313,0.0,0.0,84,0.00,,---,0.00,VWS V14.01,2013-01-04 14:11:00,
2013-01-04 07:16:00,-10.8,-14.3,31.04,NW,313,0.0,0.0,84,0.00,,---,0.00,VWS V14.01,2013-01-04 14:16:00,
2013-01-04 07:21:00,-10.8,-14.3,31.04,NW,313,0.0,0.0,84,0.00,,---,0.00,VWS V14.01,2013-01-04 14:21:00,
2013-01-04 07:26:00,-10.8,-14.3,31.04,NW,313,0.0,0.0,84,0.00,,---,0.00,VWS V14.01,2013-01-04 14:26:00,
2013-01-04 07:31:00,-10.9,-14.4,31.04,NW,313,1.0,1.0,84,0.00,,---,0.00,VWS V14.01,2013-01-04 14:31:00,
2013-01-04 07:36:00,-10.9,-14.4,31.04,NW,313,0.0,1.0,84,0.00,,---,0.00,VWS V14.01,2013-01-04 14:36:00,
2013-01-04 07:41:00,-11.0,-14.7,31.04,NW,313,0.0,0.0,83,0.00,,---,0.00,VWS V14.01,2013-01-04 14:41:00,
2013-01-04 07:47:00,-10.8,-14.3,31.04,NW,313,0.0,0.0,84,0.00,,---,0.00,VWS V14.01,2013-01-04 14:47:00,
2013-01-04 07:52:00,-11.0,-14.5,31.04,NW,313,0.0,0.0,84,0.00,,---,0.00,VWS V14.01,2013-01-04 14:52:00,
2013-01-04 07:57:00,-11.4,-15.1,31.05,NW,313,0.0,0.0,83,0.00,,---,0.00,VWS V14.01,2013-01-04 14:57:00,
2013-01-04 08:02:00,-11.1,-14.6,31.05,NW,313,0.0,0.0,84,0.00,,---,0.00,VWS V14.01,2013-01-04 15:02:00,
2013-01-04 08:07:00,-11.3,-14.8,31.05,NW,313,0.0,0.0,84,0.00,,---,0.00,VWS V14.01,2013-01-04 15:07:00,
2013-01-04 08:12:00,-10.7,-13.9,31.06,NW,313,0.0,0.0,85,0.00,,---,0.00,VWS V14.01,2013-01-04 15:12:00,
2013-01-04 08:17:00,-9.7,-13.0,31.06,NW,313,0.0,0.0,85,0.00,,---,0.00,VWS V14.01,2013-01-04 15:17:00,
2013-01-04 08:22:00,-8.9,-12.2,31.06,NW,313,0.0,0.0,85,0.00,,---,0.00,VWS V14.01,2013-01-04 15:22:00,
2013-01-04 08:27:00,-8.1,-11.4,31.06,NW,313,0.0,0.0,85,0.00,,---,0.00,VWS V14.01,2013-01-04 15:27:00,
2013-01-04 08:32:00,-10.4,-14.4,31.06,NW,313,2.0,2.0,82,0.00,,---,0.00,VWS V14.01,2013-01-04 15:32:00,
2013-01-04 08:37:00,-10.7,-14.4,31.06,NW,313,1.0,1.0,83,0.00,,---,0.00,VWS V14.01,2013-01-04 15:37:00,
2013-01-04 08:42:00,-9.7,-13.0,31.07,NW,313,0.0,0.0,85,0.00,,---,0.00,VWS V14.01,2013-01-04 15:42:00,
2013-01-04 08:47:00,-9.4,-12.9,31.07,NW,313,3.0,3.0,84,0.00,,---,0.00,VWS V14.01,2013-01-04 15:47:00,
2013-01-04 08:52:00,-7.3,-10.4,31.07,NW,313,2.0,3.0,86,0.00,,---,0.00,VWS V14.01,2013-01-04 15:52:00,
2013-01-04 08:57:00,-6.2,-9.5,31.07,NW,313,1.0,2.0,85,0.00,,---,0.00,VWS V14.01,2013-01-04 15:57:00,
2013-01-04 09:02:00,-4.4,-7.8,31.07,NW,313,0.0,0.0,85,0.00,,---,0.00,VWS V14.01,2013-01-04 16:02:00,
2013-01-04 09:07:00,-5.1,-8.9,31.06,NW,313,4.0,4.0,83,0.00,,---,0.00,VWS V14.01,2013-01-04 16:07:00,
2013-01-04 09:12:00,-3.8,-7.4,31.06,NW,313,2.0,4.0,84,0.00,,---,0.00,VWS V14.01,2013-01-04 16:12:00,
2013-01-04 09:17:00,-2.9,-6.8,31.06,NW,313,1.0,2.0,83,0.00,,---,0.00,VWS V14.01,2013-01-04 16:17:00,
2013-01-04 09:22:00,-5.4,-10.0,31.06,NW,313,0.0,0.0,80,0.00,,---,0.00,VWS V14.01,2013-01-04 16:22:00,
2013-01-04 09:27:00,-6.7,-11.2,31.06,NW,313,0.0,0.0,80,0.00,,---,0.00,VWS V14.01,2013-01-04 16:27:00,
2013-01-04 09:32:00,-6.7,-10.5,31.05,NW,313,0.0,0.0,83,0.00,,---,0.00,VWS V14.01,2013-01-04 16:32:00,
2013-01-04 09:37:00,-7.3,-11.3,31.05,NW,313,0.0,0.0,82,0.00,,---,0.00,VWS V14.01,2013-01-04 16:37:00,
2013-01-04 09:42:00,-7.9,-11.9,31.05,NW,313,0.0,0.0,82,0.00,,---,0.00,VWS V14.01,2013-01-04 16:42:00,
2013-01-04 09:47:00,-5.6,-9.2,31.05,NW,313,0.0,0.0,84,0.00,,---,0.00,VWS V14.01,2013-01-04 16:47:00,
2013-01-04 09:52:00,-4.1,-7.7,31.05,NW,313,0.0,0.0,84,0.00,,---,0.00,VWS V14.01,2013-01-04 16:52:00,
2013-01-04 09:57:00,-3.8,-7.7,31.05,NW,313,0.0,0.0,83,0.00,,---,0.00,VWS V14.01,2013-01-04 16:57:00,
2013-01-04 10:02:00,-2.7,-6.8,31.05,NW,313,0.0,0.0,82,0.00,,---,0.00,VWS V14.01,2013-01-04 17:02:00,
2013-01-04 10:07:00,-1.9,-6.3,31.04,NW,313,0.0,0.0,81,0.00,,---,0.00,VWS V14.01,2013-01-04 17:07:00,
2013-01-04 10:12:00,-2.3,-6.7,31.04,NW,313,0.0,0.0,81,0.00,,---,0.00,VWS V14.01,2013-01-04 17:12:00,
2013-01-04 10:17:00,-1.8,-6.2,31.04,NW,313,0.0,0.0,81,0.00,,---,0.00,VWS V14.01,2013-01-04 17:17:00,
2013-01-04 10:22:00,-0.7,-5.4,31.04,NW,313,0.0,0.0,80,0.00,,---,0.00,VWS V14.01,2013-01-04 17:22:00,
2013-01-04 10:27:00,-0.2,-4.9,31.03,NW,313,0.0,0.0,80,0.00,,---,0.00,VWS V14.01,2013-01-04 17:27:00,
2013-01-04 10:32:00,0.6,-4.6,31.04,NW,313,0.0,0.0,78,0.00,,---,0.00,VWS V14.01,2013-01-04 17:32:00,
2013-01-04 10:37:00,0.7,-4.5,31.03,NW,313,0.0,0.0,78,0.00,,---,0.00,VWS V14.01,2013-01-04 17:37:00,
2013-01-04 10:42:00,0.8,-4.2,31.02,NW,313,0.0,0.0,79,0.00,,---,0.00,VWS V14.01,2013-01-04 17:42:00,
2013-01-04 10:47:00,0.6,-4.4,31.02,NW,313,0.0,0.0,79,0.00,,---,0.00,VWS V14.01,2013-01-04 17:47:00,
2013-01-04 10:52:00,1.5,-3.8,31.02,NW,313,0.0,0.0,78,0.00,,---,0.00,VWS V14.01,2013-01-04 17:52:00,
2013-01-04 10:57:00,2.4,-3.4,31.01,NW,313,0.0,0.0,76,0.00,,---,0.00,VWS V14.01,2013-01-04 17:57:00,
2013-01-04 11:02:00,3.3,-2.8,31.00,NW,313,0.0,0.0,75,0.00,,---,0.00,VWS V14.01,2013-01-04 18:02:00,
2013-01-04 11:07:00,4.6,-1.9,31.00,NW,313,0.0,0.0,74,0.00,,---,0.00,VWS V14.01,2013-01-04 18:07:00,
2013-01-04 11:12:00,4.0,-2.7,30.99,NW,313,0.0,0.0,73,0.00,,---,0.00,VWS V14.01,2013-01-04 18:12:00,
2013-01-04 11:17:00,4.5,-2.2,30.99,NW,313,0.0,0.0,73,0.00,,---,0.00,VWS V14.01,2013-01-04 18:17:00,
2013-01-04 11:22:00,6.0,-0.8,30.98,NW,313,0.0,0.0,73,0.00,,---,0.00,VWS V14.01,2013-01-04 18:22:00,
2013-01-04 11:27:00,5.0,-1.8,30.98,NW,313,0.0,0.0,73,0.00,,---,0.00,VWS V14.01,2013-01-04 18:27:00,
2013-01-04 11:32:00,5.5,-1.0,30.98,NW,313,0.0,0.0,74,0.00,,---,0.00,VWS V14.01,2013-01-04 18:32:00,
2013-01-04 11:37:00,5.9,-0.6,30.97,NW,313,0.0,0.0,74,0.00,,---,0.00,VWS V14.01,2013-01-04 18:37:00,
2013-01-04 11:42:00,7.3,0.2,30.96,NW,313,0.0,0.0,72,0.00,,---,0.00,VWS V14.01,2013-01-04 18:42:00,
2013-01-04 11:47:00,7.2,-0.2,30.96,NW,313,0.0,0.0,71,0.00,,---,0.00,VWS V14.01,2013-01-04 18:47:00,
2013-01-04 11:52:00,7.4,-0.3,30.95,NW,313,0.0,0.0,70,0.00,,---,0.00,VWS V14.01,2013-01-04 18:52:00,
2013-01-04 11:57:00,7.0,-0.7,30.94,NW,313,0.0,0.0,70,0.00,,---,0.00,VWS V14.01,2013-01-04 18:57:00,
2013-01-04 12:02:00,7.3,-0.4,30.94,NW,313,0.0,0.0,70,0.00,,---,0.00,VWS V14.01,2013-01-04 19:02:00,
2013-01-04 12:07:00,8.9,0.8,30.93,NW,313,0.0,0.0,69,0.00,,---,0.00,VWS V14.01,2013-01-04 19:07:00,
2013-01-04 12:12:00,9.2,1.1,30.93,NW,313,0.0,0.0,69,0.00,,---,0.00,VWS V14.01,2013-01-04 19:12:00,
2013-01-04 12:17:00,9.9,1.8,30.92,NW,313,0.0,0.0,69,0.00,,---,0.00,VWS V14.01,2013-01-04 19:17:00,
2013-01-04 12:22:00,10.0,1.2,30.91,NW,313,0.0,0.0,67,0.00,,---,0.00,VWS V14.01,2013-01-04 19:22:00,
2013-01-04 12:27:00,10.6,2.1,30.91,NW,313,0.0,0.0,68,0.00,,---,0.00,VWS V14.01,2013-01-04 19:27:00,
2013-01-04 12:32:00,10.7,1.9,30.90,NW,313,0.0,1.0,67,0.00,,---,0.00,VWS V14.01,2013-01-04 19:32:00,
2013-01-04 12:37:00,10.7,1.3,30.90,NW,313,0.0,0.0,65,0.00,,---,0.00,VWS V14.01,2013-01-04 19:37:00,
2013-01-04 12:42:00,10.8,1.4,30.89,NW,313,0.0,0.0,65,0.00,,---,0.00,VWS V14.01,2013-01-04 19:42:00,
2013-01-04 12:47:00,11.0,1.5,30.89,NW,313,2.0,2.0,65,0.00,,---,0.00,VWS V14.01,2013-01-04 19:47:00,
2013-01-04 12:52:00,11.3,2.2,30.89,NW,313,3.0,4.0,66,0.00,,---,0.00,VWS V14.01,2013-01-04 19:52:00,
2013-01-04 12:57:00,11.0,2.2,30.88,NW,313,2.0,2.0,67,0.00,,---,0.00,VWS V14.01,2013-01-04 19:57:00,
2013-01-04 13:02:00,11.1,2.3,30.88,NW,313,1.0,2.0,67,0.00,,---,0.00,VWS V14.01,2013-01-04 20:02:00,
2013-01-04 13:07:00,11.3,2.2,30.87,NW,313,0.0,0.0,66,0.00,,---,0.00,VWS V14.01,2013-01-04 20:07:00,
2013-01-04 13:12:00,11.4,1.9,30.87,NW,313,3.0,3.0,65,0.00,,---,0.00,VWS V14.01,2013-01-04 20:12:00,
2013-01-04 13:18:00,11.5,2.0,30.87,NW,313,2.0,2.0,65,0.00,,---,0.00,VWS V14.01,2013-01-04 20:18:00,
2013-01-04 13:23:00,10.5,2.4,30.86,NW,313,4.0,4.0,69,0.00,,---,0.00,VWS V14.01,2013-01-04 20:23:00,
2013-01-04 13:28:00,9.4,1.6,30.86,NW,313,4.0,4.0,70,0.00,,---,0.00,VWS V14.01,2013-01-04 20:28:00,
2013-01-04 13:33:00,8.9,1.7,30.85,NW,313,3.0,3.0,72,0.00,,---,0.00,VWS V14.01,2013-01-04 20:33:00,
2013-01-04 13:38:00,8.7,1.5,30.85,NW,313,1.0,2.0,72,0.00,,---,0.00,VWS V14.01,2013-01-04 20:38:00,
2013-01-04 13:43:00,8.7,1.5,30.85,NW,313,0.0,2.0,72,0.00,,---,0.00,VWS V14.01,2013-01-04 20:43:00,
2013-01-04 13:48:00,8.7,1.5,30.84,NW,313,4.0,4.0,72,0.00,,---,0.00,VWS V14.01,2013-01-04 20:48:00,
2013-01-04 13:53:00,8.7,1.5,30.84,NW,313,2.0,3.0,72,0.00,,---,0.00,VWS V14.01,2013-01-04 20:53:00,
2013-01-04 13:58:00,8.5,1.0,30.84,NW,313,2.0,2.0,71,0.00,,---,0.00,VWS V14.01,2013-01-04 20:58:00,
2013-01-04 14:03:00,8.2,0.8,30.84,NW,313,3.0,3.0,71,0.00,,---,0.00,VWS V14.01,2013-01-04 21:03:00,
2013-01-04 14:08:00,8.1,1.2,30.83,NW,313,4.0,4.0,73,0.00,,---,0.00,VWS V14.01,2013-01-04 21:08:00,
2013-01-04 14:13:00,7.7,0.6,30.83,NW,313,3.0,3.0,72,0.00,,---,0.00,VWS V14.01,2013-01-04 21:13:00,
2013-01-04 14:18:00,7.8,0.7,30.83,NW,313,2.0,2.0,72,0.00,,---,0.00,VWS V14.01,2013-01-04 21:18:00,
2013-01-04 14:23:00,7.9,0.8,30.83,NW,313,1.0,2.0,72,0.00,,---,0.00,VWS V14.01,2013-01-04 21:23:00,
2013-01-04 14:28:00,8.2,0.8,30.83,NW,313,2.0,2.0,71,0.00,,---,0.00,VWS V14.01,2013-01-04 21:28:00,
2013-01-04 14:33:00,8.2,0.8,30.83,NW,313,0.0,0.0,71,0.00,,---,0.00,VWS V14.01,2013-01-04 21:33:00,
2013-01-04 14:38:00,8.6,1.1,30.83,NW,313,0.0,1.0,71,0.00,,---,0.00,VWS V14.01,2013-01-04 21:38:00,
2013-01-04 14:43:00,8.7,0.9,30.83,NW,313,0.0,0.0,70,0.00,,---,0.00,VWS V14.01,2013-01-04 21:43:00,
2013-01-04 14:48:00,8.9,1.1,30.83,NW,313,0.0,1.0,70,0.00,,---,0.00,VWS V14.01,2013-01-04 21:48:00,
2013-01-04 14:53:00,9.5,1.7,30.83,NW,313,0.0,0.0,70,0.00,,---,0.00,VWS V14.01,2013-01-04 21:53:00,
2013-01-04 14:58:00,9.2,0.8,30.83,NW,313,0.0,0.0,68,0.00,,---,0.00,VWS V14.01,2013-01-04 21:58:00,
2013-01-04 15:03:00,8.9,0.8,30.83,NW,313,3.0,3.0,69,0.00,,---,0.00,VWS V14.01,2013-01-04 22:03:00,
2013-01-04 15:08:00,8.4,0.6,30.83,NW,313,1.0,3.0,70,0.00,,---,0.00,VWS V14.01,2013-01-04 22:08:00,
2013-01-04 15:13:00,8.0,0.6,30.83,NW,313,2.0,2.0,71,0.00,,---,0.00,VWS V14.01,2013-01-04 22:13:00,
2013-01-04 15:18:00,7.7,0.3,30.83,NW,313,1.0,2.0,71,0.00,,---,0.00,VWS V14.01,2013-01-04 22:18:00,
2013-01-04 15:23:00,7.6,0.2,30.83,NW,313,0.0,0.0,71,0.00,,---,0.00,VWS V14.01,2013-01-04 22:23:00,
2013-01-04 15:28:00,7.5,-0.2,30.83,NW,313,0.0,0.0,70,0.00,,---,0.00,VWS V14.01,2013-01-04 22:28:00,
2013-01-04 15:33:00,7.4,0.0,30.83,NW,313,0.0,0.0,71,0.00,,---,0.00,VWS V14.01,2013-01-04 22:33:00,
2013-01-04 15:38:00,7.4,0.0,30.83,NW,313,0.0,1.0,71,0.00,,---,0.00,VWS V14.01,2013-01-04 22:38:00,
2013-01-04 15:43:00,7.0,-0.4,30.83,NW,313,0.0,1.0,71,0.00,,---,0.00,VWS V14.01,2013-01-04 22:43:00,
2013-01-04 15:48:00,7.0,-0.4,30.83,NW,313,0.0,0.0,71,0.00,,---,0.00,VWS V14.01,2013-01-04 22:48:00,
2013-01-04 15:53:00,6.9,-0.5,30.83,NW,313,0.0,0.0,71,0.00,,---,0.00,VWS V14.01,2013-01-04 22:53:00,
2013-01-04 15:58:00,6.5,-0.6,30.83,NW,313,0.0,0.0,72,0.00,,---,0.00,VWS V14.01,2013-01-04 22:58:00,
2013-01-04 16:03:00,6.1,-0.7,30.83,NW,313,0.0,0.0,73,0.00,,---,0.00,VWS V14.01,2013-01-04 23:03:00,
2013-01-04 16:08:00,5.8,-1.0,30.83,NW,313,0.0,0.0,73,0.00,,---,0.00,VWS V14.01,2013-01-04 23:08:00,
2013-01-04 16:13:00,5.6,-0.9,30.84,NW,313,0.0,0.0,74,0.00,,---,0.00,VWS V14.01,2013-01-04 23:13:00,
2013-01-04 16:18:00,5.9,-0.6,30.83,NW,313,0.0,0.0,74,0.00,,---,0.00,VWS V14.01,2013-01-04 23:18:00,
2013-01-04 16:23:00,6.0,-0.8,30.83,NW,313,0.0,0.0,73,0.00,,---,0.00,VWS V14.01,2013-01-04 23:23:00,
2013-01-04 16:28:00,6.0,-1.1,30.83,NW,313,0.0,0.0,72,0.00,,---,0.00,VWS V14.01,2013-01-04 23:28:00,
2013-01-04 16:33:00,5.7,-1.4,30.83,NW,313,0.0,1.0,72,0.00,,---,0.00,VWS V14.01,2013-01-04 23:33:00,
2013-01-04 16:38:00,5.4,-1.4,30.83,NW,313,3.0,4.0,73,0.00,,---,0.00,VWS V14.01,2013-01-04 23:38:00,
2013-01-04 16:43:00,4.9,-1.8,30.83,NW,313,2.0,2.0,73,0.00,,---,0.00,VWS V14.01,2013-01-04 23:43:00,
2013-01-04 16:48:00,4.6,-1.9,30.83,NW,313,0.0,0.0,74,0.00,,---,0.00,VWS V14.01,2013-01-04 23:48:00,
2013-01-04 16:53:00,4.6,-1.9,30.83,NW,313,0.0,0.0,74,0.00,,---,0.00,VWS V14.01,2013-01-04 23:53:00,
2013-01-04 16:58:00,4.4,-2.3,30.83,NW,313,0.0,0.0,73,0.00,,---,0.00,VWS V14.01,2013-01-04 23:58:00,
2013-01-04 17:03:00,4.2,-2.5,30.83,NW,313,0.0,0.0,73,0.00,,---,0.00,VWS V14.01,2013-01-05 00:03:00,
2013-01-04 17:08:00,3.9,-2.5,30.83,NW,313,2.0,2.0,74,0.00,,---,0.00,VWS V14.01,2013-01-05 00:08:00,
2013-01-04 17:13:00,3.5,-2.6,30.83,NW,313,2.0,2.0,75,0.00,,---,0.00,VWS V14.01,2013-01-05 00:13:00,
2013-01-04 17:18:00,3.2,-2.9,30.83,NW,313,1.0,2.0,75,0.00,,---,0.00,VWS V14.01,2013-01-05 00:18:00,
2013-01-04 17:23:00,3.1,-2.7,30.83,NW,313,0.0,0.0,76,0.00,,---,0.00,VWS V14.01,2013-01-05 00:23:00,
2013-01-04 17:28:00,3.0,-3.1,30.83,NW,313,0.0,0.0,75,0.00,,---,0.00,VWS V14.01,2013-01-05 00:28:00,
2013-01-04 17:33:00,2.6,-3.8,30.83,NW,313,1.0,1.0,74,0.00,,---,0.00,VWS V14.01,2013-01-05 00:33:00,
2013-01-04 17:38:00,2.3,-3.8,30.83,NW,313,4.0,4.0,75,0.00,,---,0.00,VWS V14.01,2013-01-05 00:38:00,
2013-01-04 17:43:00,2.2,-3.6,30.83,NW,313,3.0,6.0,76,0.00,,---,0.00,VWS V14.01,2013-01-05 00:43:00,
2013-01-04 17:48:00,2.3,-3.2,30.83,NW,313,3.0,3.0,77,0.00,,---,0.00,VWS V14.01,2013-01-05 00:48:00,
2013-01-04 17:53:00,2.3,-3.5,30.84,NW,313,0.0,3.0,76,0.00,,---,0.00,VWS V14.01,2013-01-05 00:53:00,
2013-01-04 17:58:00,2.2,-3.6,30.83,NW,313,2.0,2.0,76,0.00,,---,0.00,VWS V14.01,2013-01-05 00:58:00,
2013-01-04 18:03:00,1.9,-3.9,30.84,NW,313,0.0,1.0,76,0.00,,---,0.00,VWS V14.01,2013-01-05 01:03:00,
2013-01-04 18:08:00,1.8,-3.7,30.83,NW,313,1.0,3.0,77,0.00,,---,0.00,VWS V14.01,2013-01-05 01:08:00,
2013-01-04 18:13:00,1.7,-4.1,30.83,NW,313,0.0,1.0,76,0.00,,---,0.00,VWS V14.01,2013-01-05 01:13:00,
2013-01-04 18:18:00,1.4,-4.4,30.83,NW,313,0.0,0.0,76,0.00,,---,0.00,VWS V14.01,2013-01-05 01:18:00,
2013-01-04 18:23:00,1.2,-4.3,30.83,NW,313,0.0,3.0,77,0.00,,---,0.00,VWS V14.01,2013-01-05 01:23:00,
2013-01-04 18:28:00,0.8,-5.0,30.83,NW,313,2.0,3.0,76,0.00,,---,0.00,VWS V14.01,2013-01-05 01:28:00,
2013-01-04 18:33:00,0.3,-5.2,30.83,NW,313,2.0,3.0,77,0.00,,---,0.00,VWS V14.01,2013-01-05 01:33:00,
2013-01-04 18:38:00,0.4,-4.3,30.83,NW,313,2.0,4.0,80,0.00,,---,0.00,VWS V14.01,2013-01-05 01:38:00,
2013-01-04 18:43:00,0.9,-3.8,30.84,NW,313,0.0,0.0,80,0.00,,---,0.00,VWS V14.01,2013-01-05 01:43:00,
2013-01-04 18:48:00,0.4,-5.1,30.84,NW,313,1.0,1.0,77,0.00,,---,0.00,VWS V14.01,2013-01-05 01:48:00,
2013-01-04 18:54:00,-0.4,-6.1,30.84,NW,313,0.0,1.0,76,0.00,,---,0.00,VWS V14.01,2013-01-05 01:54:00,
2013-01-04 18:59:00,-1.0,-6.5,30.84,NW,313,1.0,2.0,77,0.00,,---,0.00,VWS V14.01,2013-01-05 01:59:00,
2013-01-04 19:04:00,-1.4,-6.3,30.84,NW,313,2.0,4.0,79,0.00,,---,0.00,VWS V14.01,2013-01-05 02:04:00,
2013-01-04 19:09:00,-1.2,-5.3,30.84,NW,313,2.0,3.0,82,0.00,,---,0.00,VWS V14.01,2013-01-05 02:09:00,
2013-01-04 19:14:00,-0.8,-4.7,30.84,NW,313,0.0,1.0,83,0.00,,---,0.00,VWS V14.01,2013-01-05 02:14:00,
2013-01-04 19:19:00,-0.1,-4.0,30.84,NW,313,0.0,2.0,83,0.00,,---,0.00,VWS V14.01,2013-01-05 02:19:00,
2013-01-04 19:24:00,0.1,-4.4,30.84,NW,313,1.0,2.0,81,0.00,,---,0.00,VWS V14.01,2013-01-05 02:24:00,
2013-01-04 19:29:00,-0.8,-6.0,30.84,NW,313,0.0,0.0,78,0.00,,---,0.00,VWS V14.01,2013-01-05 02:29:00,
2013-01-04 19:34:00,-1.2,-6.1,30.84,NW,313,2.0,3.0,79,0.00,,---,0.00,VWS V14.01,2013-01-05 02:34:00,
2013-01-04 19:39:00,-1.7,-6.6,30.85,NW,313,1.0,2.0,79,0.00,,---,0.00,VWS V14.01,2013-01-05 02:39:00,
2013-01-04 19:44:00,-2.0,-6.6,30.85,NW,313,0.0,2.0,80,0.00,,---,0.00,VWS V14.01,2013-01-05 02:44:00,
2013-01-04 19:49:00,-2.1,-6.5,30.85,NW,313,0.0,0.0,81,0.00,,---,0.00,VWS V14.01,2013-01-05 02:49:00,
2013-01-04 19:54:00,-2.2,-6.6,30.85,NW,313,1.0,1.0,81,0.00,,---,0.00,VWS V14.01,2013-01-05 02:54:00,
2013-01-04 19:59:00,-2.2,-6.3,30.85,NW,313,1.0,1.0,82,0.00,,---,0.00,VWS V14.01,2013-01-05 02:59:00,
2013-01-04 20:04:00,-2.2,-6.1,30.85,NW,313,1.0,2.0,83,0.00,,---,0.00,VWS V14.01,2013-01-05 03:04:00,
2013-01-04 20:09:00,-1.6,-5.0,30.85,NW,313,1.0,2.0,85,0.00,,---,0.00,VWS V14.01,2013-01-05 03:09:00,
2013-01-04 20:14:00,-1.4,-5.1,30.85,NW,313,6.0,6.0,84,0.00,,---,0.00,VWS V14.01,2013-01-05 03:14:00,
2013-01-04 20:19:00,-1.9,-6.3,30.85,NW,313,0.0,0.0,81,0.00,,---,0.00,VWS V14.01,2013-01-05 03:19:00,
2013-01-04 20:24:00,-2.3,-6.7,30.85,NW,313,0.0,2.0,81,0.00,,---,0.00,VWS V14.01,2013-01-05 03:24:00,
2013-01-04 20:29:00,-2.4,-6.5,30.85,NW,313,1.0,1.0,82,0.00,,---,0.00,VWS V14.01,2013-01-05 03:29:00,
2013-01-04 20:34:00,-2.6,-6.7,30.86,NW,313,0.0,0.0,82,0.00,,---,0.00,VWS V14.01,2013-01-05 03:34:00,
2013-01-04 20:39:00,-3.0,-7.4,30.86,NW,313,0.0,0.0,81,0.00,,---,0.00,VWS V14.01,2013-01-05 03:39:00,
2013-01-04 20:44:00,-2.5,-6.4,30.86,NW,313,0.0,2.0,83,0.00,,---,0.00,VWS V14.01,2013-01-05 03:44:00,
2013-01-04 20:49:00,-1.9,-5.5,30.86,NW,313,0.0,0.0,84,0.00,,---,0.00,VWS V14.01,2013-01-05 03:49:00,
2013-01-04 20:54:00,-1.8,-5.7,30.86,NW,313,3.0,3.0,83,0.00,,---,0.00,VWS V14.01,2013-01-05 03:54:00,
2013-01-04 20:59:00,-2.1,-6.5,30.87,NW,313,3.0,3.0,81,0.00,,---,0.00,VWS V14.01,2013-01-05 03:59:00,
2013-01-04 21:04:00,-2.2,-6.6,30.87,NW,313,0.0,0.0,81,0.00,,---,0.00,VWS V14.01,2013-01-05 04:04:00,
2013-01-04 21:09:00,-2.6,-7.0,30.87,NW,313,0.0,0.0,81,0.00,,---,0.00,VWS V14.01,2013-01-05 04:09:00,
2013-01-04 21:14:00,-2.8,-7.2,30.87,NW,313,1.0,1.0,81,0.00,,---,0.00,VWS V14.01,2013-01-05 04:14:00,
2013-01-04 21:19:00,-3.4,-8.0,30.87,NW,313,1.0,1.0,80,0.00,,---,0.00,VWS V14.01,2013-01-05 04:19:00,
2013-01-04 21:24:00,-4.1,-8.7,30.87,NW,313,0.0,0.0,80,0.00,,---,0.00,VWS V14.01,2013-01-05 04:24:00,
2013-01-04 21:29:00,-4.6,-9.2,30.87,NW,313,0.0,0.0,80,0.00,,---,0.00,VWS V14.01,2013-01-05 04:29:00,
2013-01-04 21:34:00,-4.8,-8.9,30.88,NW,313,2.0,3.0,82,0.00,,---,0.00,VWS V14.01,2013-01-05 04:34:00,
2013-01-04 21:39:00,-4.9,-8.7,30.88,NW,313,0.0,0.0,83,0.00,,---,0.00,VWS V14.01,2013-01-05 04:39:00,
2013-01-04 21:44:00,-4.8,-8.4,30.88,NW,313,0.0,0.0,84,0.00,,---,0.00,VWS V14.01,2013-01-05 04:44:00,
2013-01-04 21:49:00,-4.4,-7.8,30.88,NW,313,0.0,0.0,85,0.00,,---,0.00,VWS V14.01,2013-01-05 04:49:00,
2013-01-04 21:54:00,-3.9,-7.0,30.88,NW,313,1.0,3.0,86,0.00,,---,0.00,VWS V14.01,2013-01-05 04:54:00,
2013-01-04 21:59:00,-4.1,-7.5,30.88,NW,313,1.0,1.0,85,0.00,,---,0.00,VWS V14.01,2013-01-05 04:59:00,
2013-01-04 22:00:00,-4.2,-7.6,30.88,NW,313,1.0,2.0,85,0.00,,---,0.00,VWS V14.01,2013-01-05 05:00:00,
2013-01-04 22:01:00,-4.3,-7.9,30.88,NW,313,1.0,1.0,84,0.00,,---,0.00,VWS V14.01,2013-01-05 05:01:00,
2013-01-04 22:06:00,-4.9,-8.7,30.89,NW,313,0.0,0.0,83,0.00,,---,0.00,VWS V14.01,2013-01-05 05:06:00,
2013-01-04 22:11:00,-5.0,-8.8,30.89,NW,313,0.0,0.0,83,0.00,,---,0.00,VWS V14.01,2013-01-05 05:11:00,
2013-01-04 22:16:00,-4.9,-8.2,30.89,NW,313,0.0,0.0,85,0.00,,---,0.00,VWS V14.01,2013-01-05 05:16:00,
2013-01-04 22:21:00,-4.2,-7.3,30.89,NW,313,1.0,2.0,86,0.00,,---,0.00,VWS V14.01,2013-01-05 05:21:00,
2013-01-04 22:26:00,-3.6,-6.7,30.89,NW,313,0.0,1.0,86,0.00,,---,0.00,VWS V14.01,2013-01-05 05:26:00,
2013-01-04 22:31:00,-3.7,-7.3,30.90,NW,313,4.0,4.0,84,0.00,,---,0.00,VWS V14.01,2013-01-05 05:31:00,
2013-01-04 22:36:00,-3.4,-7.0,30.90,NW,313,1.0,2.0,84,0.00,,---,0.00,VWS V14.01,2013-01-05 05:36:00,
2013-01-04 22:41:00,-3.8,-7.7,30.90,NW,313,0.0,0.0,83,0.00,,---,0.00,VWS V14.01,2013-01-05 05:41:00,
2013-01-04 22:46:00,-4.1,-7.9,30.90,NW,313,0.0,0.0,83,0.00,,---,0.00,VWS V14.01,2013-01-05 05:46:00,
2013-01-04 22:51:00,-4.4,-8.5,30.90,NW,313,2.0,4.0,82,0.00,,---,0.00,VWS V14.01,2013-01-05 05:51:00,
2013-01-04 22:56:00,-4.1,-7.7,30.90,NW,313,2.0,4.0,84,0.00,,---,0.00,VWS V14.01,2013-01-05 05:56:00,
2013-01-04 23:01:00,-4.1,-7.9,30.90,NW,313,2.0,3.0,83,0.00,,---,0.00,VWS V14.01,2013-01-05 06:01:00,
2013-01-04 23:06:00,-4.1,-7.9,30.90,NW,313,0.0,0.0,83,0.00,,---,0.00,VWS V14.01,2013-01-05 06:06:00,
2013-01-04 23:11:00,-4.3,-8.1,30.90,NW,313,0.0,0.0,83,0.00,,---,0.00,VWS V14.01,2013-01-05 06:11:00,
2013-01-04 23:16:00,-4.4,-8.2,30.90,NW,313,0.0,0.0,83,0.00,,---,0.00,VWS V14.01,2013-01-05 06:16:00,
2013-01-04 23:21:00,-4.4,-8.0,30.89,NW,313,0.0,0.0,84,0.00,,---,0.00,VWS V14.01,2013-01-05 06:21:00,
2013-01-04 23:26:00,-4.3,-7.9,30.90,NW,313,3.0,4.0,84,0.00,,---,0.00,VWS V14.01,2013-01-05 06:26:00,
2013-01-04 23:31:00,-3.9,-7.3,30.90,NW,313,1.0,1.0,85,0.00,,---,0.00,VWS V14.01,2013-01-05 06:31:00,
2013-01-04 23:36:00,-4.0,-7.6,30.90,NW,313,0.0,0.0,84,0.00,,---,0.00,VWS V14.01,2013-01-05 06:36:00,
2013-01-04 23:41:00,-4.0,-7.6,30.90,NW,313,0.0,0.0,84,0.00,,---,0.00,VWS V14.01,2013-01-05 06:41:00,
2013-01-04 23:46:00,-4.1,-7.7,30.90,NW,313,0.0,0.0,84,0.00,,---,0.00,VWS V14.01,2013-01-05 06:46:00,
2013-01-04 23:51:00,-4.3,-8.1,30.89,NW,313,0.0,0.0,83,0.00,,---,0.00,VWS V14.01,2013-01-05 06:51:00,
2013-01-04 23:56:00,-4.4,-8.0,30.89,NW,313,0.0,0.0,84,0.00,,---,0.00,VWS V14.01,2013-01-05 06:56:00,